Main page
METAR-TAF:

METAR-TAF

Airports :

Ruben Berta International Airport

Uruguaiana, Rio Grande do Sul, Brazil

latitude: 29-47S, longitude: 057-02W, elevation: 74 m

METAR: missing

Time: 18:35 (21:35 UTC)

Forecast

The report was made 6 hours and 35 minutes ago, at 15:00 UTC
Forecast valid from 01 at 18 UTC to 02 at 06 UTC
Wind 5 kt from the South
Visibility 10 km or more
Few clouds at a height of 4800 ft
Becoming
from 01 at 20 UTC to 01 at 22 UTC
Wind 5 kt from the South/Southwest
Visibility 10 km or more
no clouds below 1500 m and no cumulonimbus
Becoming
from 02 at 04 UTC to 02 at 06 UTC
Wind 8 kt from the East

TAF: SBUG 011500Z 0118/0206 18005KT 9999 FEW048 TX32/0118Z TN22/0206Z BECMG 0120/0122 20005KT CAVOK BECMG 0204/0206 08008KT RMK PAY

Weather observations and forecasts of more than 4000 airports (METAR and TAF reports).

The available stations are represented by yellow and red dots on the map.

Hover mouse over dot to see the name of the station.

Then click to see weather observations and forecasts.

To change the map : click on the green buttons with a black cross to zoom in, on the green button with a dash to zoom out, or on the green arrows for adjacent maps.


METAR-TAF: